sensor_id;sensor_type;location;lat;lon;timestamp;P1;durP1;ratioP1;P2;durP2;ratioP2
25435;SDS011;13363;52.772;-3.890;2023-06-04T00:00:48;5.23;;;2.83;;
25435;SDS011;13363;52.772;-3.890;2023-06-04T00:03:14;4.40;;;2.70;;
25435;SDS011;13363;52.772;-3.890;2023-06-04T00:05:40;5.07;;;2.90;;
25435;SDS011;13363;52.772;-3.890;2023-06-04T00:08:05;3.10;;;2.83;;
25435;SDS011;13363;52.772;-3.890;2023-06-04T00:10:31;3.27;;;2.93;;
25435;SDS011;13363;52.772;-3.890;2023-06-04T00:12:58;5.23;;;3.00;;
25435;SDS011;13363;52.772;-3.890;2023-06-04T00:15:25;5.90;;;2.93;;
25435;SDS011;13363;52.772;-3.890;2023-06-04T00:17:51;3.47;;;2.77;;
25435;SDS011;13363;52.772;-3.890;2023-06-04T00:20:17;3.23;;;2.83;;
25435;SDS011;13363;52.772;-3.890;2023-06-04T00:22:43;3.10;;;2.80;;
25435;SDS011;13363;52.772;-3.890;2023-06-04T00:25:09;2.63;;;2.43;;
25435;SDS011;13363;52.772;-3.890;2023-06-04T00:27:35;3.10;;;2.90;;
25435;SDS011;13363;52.772;-3.890;2023-06-04T00:30:02;3.13;;;2.83;;
25435;SDS011;13363;52.772;-3.890;2023-06-04T00:32:28;3.40;;;3.10;;
25435;SDS011;13363;52.772;-3.890;2023-06-04T00:34:54;2.90;;;2.60;;
25435;SDS011;13363;52.772;-3.890;2023-06-04T00:37:23;4.60;;;2.97;;
25435;SDS011;13363;52.772;-3.890;2023-06-04T00:39:49;4.70;;;2.77;;
25435;SDS011;13363;52.772;-3.890;2023-06-04T00:42:16;7.13;;;3.40;;
25435;SDS011;13363;52.772;-3.890;2023-06-04T00:44:42;2.73;;;2.53;;
25435;SDS011;13363;52.772;-3.890;2023-06-04T00:47:11;3.90;;;2.70;;
25435;SDS011;13363;52.772;-3.890;2023-06-04T00:49:37;6.30;;;3.37;;
25435;SDS011;13363;52.772;-3.890;2023-06-04T00:52:04;3.37;;;2.57;;
25435;SDS011;13363;52.772;-3.890;2023-06-04T00:54:30;6.23;;;3.00;;
25435;SDS011;13363;52.772;-3.890;2023-06-04T00:56:59;3.10;;;2.90;;
25435;SDS011;13363;52.772;-3.890;2023-06-04T00:59:24;4.70;;;2.90;;
25435;SDS011;13363;52.772;-3.890;2023-06-04T01:02:09;2.60;;;2.40;;
25435;SDS011;13363;52.772;-3.890;2023-06-04T01:07:33;6.97;;;2.70;;
25435;SDS011;13363;52.772;-3.890;2023-06-04T01:10:01;4.53;;;3.30;;
25435;SDS011;13363;52.772;-3.890;2023-06-04T01:12:27;4.73;;;3.07;;
25435;SDS011;13363;52.772;-3.890;2023-06-04T01:14:53;3.10;;;2.73;;
25435;SDS011;13363;52.772;-3.890;2023-06-04T01:17:20;4.33;;;2.80;;
25435;SDS011;13363;52.772;-3.890;2023-06-04T01:23:05;2.93;;;2.53;;
25435;SDS011;13363;52.772;-3.890;2023-06-04T01:25:38;3.00;;;2.70;;
25435;SDS011;13363;52.772;-3.890;2023-06-04T01:28:07;4.93;;;3.10;;
25435;SDS011;13363;52.772;-3.890;2023-06-04T01:30:37;6.77;;;2.77;;
25435;SDS011;13363;52.772;-3.890;2023-06-04T01:33:07;2.77;;;2.53;;
25435;SDS011;13363;52.772;-3.890;2023-06-04T01:35:35;2.93;;;2.60;;
25435;SDS011;13363;52.772;-3.890;2023-06-04T01:38:01;3.20;;;2.90;;
25435;SDS011;13363;52.772;-3.890;2023-06-04T01:40:27;2.73;;;2.53;;
25435;SDS011;13363;52.772;-3.890;2023-06-04T01:42:53;2.63;;;2.43;;
25435;SDS011;13363;52.772;-3.890;2023-06-04T01:45:20;3.30;;;2.53;;
25435;SDS011;13363;52.772;-3.890;2023-06-04T01:47:47;3.63;;;2.73;;
25435;SDS011;13363;52.772;-3.890;2023-06-04T01:50:13;3.80;;;2.70;;
25435;SDS011;13363;52.772;-3.890;2023-06-04T01:52:39;3.43;;;2.40;;
25435;SDS011;13363;52.772;-3.890;2023-06-04T01:55:05;4.00;;;2.60;;
25435;SDS011;13363;52.772;-3.890;2023-06-04T01:57:33;4.43;;;2.60;;
25435;SDS011;13363;52.772;-3.890;2023-06-04T02:00:07;7.40;;;2.90;;
25435;SDS011;13363;52.772;-3.890;2023-06-04T02:02:35;3.47;;;2.40;;
25435;SDS011;13363;52.772;-3.890;2023-06-04T02:05:05;4.37;;;2.20;;
25435;SDS011;13363;52.772;-3.890;2023-06-04T02:07:34;4.03;;;2.40;;
25435;SDS011;13363;52.772;-3.890;2023-06-04T02:12:58;4.50;;;2.53;;
25435;SDS011;13363;52.772;-3.890;2023-06-04T02:15:29;3.53;;;2.20;;
25435;SDS011;13363;52.772;-3.890;2023-06-04T02:17:58;2.63;;;2.43;;
25435;SDS011;13363;52.772;-3.890;2023-06-04T02:20:41;4.00;;;2.30;;
25435;SDS011;13363;52.772;-3.890;2023-06-04T02:23:07;2.57;;;2.33;;
25435;SDS011;13363;52.772;-3.890;2023-06-04T02:25:34;3.10;;;2.80;;
25435;SDS011;13363;52.772;-3.890;2023-06-04T02:27:59;4.00;;;2.53;;
25435;SDS011;13363;52.772;-3.890;2023-06-04T02:30:25;3.60;;;2.60;;
25435;SDS011;13363;52.772;-3.890;2023-06-04T02:32:51;4.10;;;2.53;;
25435;SDS011;13363;52.772;-3.890;2023-06-04T02:35:20;5.20;;;2.43;;
25435;SDS011;13363;52.772;-3.890;2023-06-04T02:37:48;3.03;;;2.17;;
25435;SDS011;13363;52.772;-3.890;2023-06-04T02:40:14;4.00;;;2.30;;
25435;SDS011;13363;52.772;-3.890;2023-06-04T02:42:40;5.23;;;2.40;;
25435;SDS011;13363;52.772;-3.890;2023-06-04T02:45:06;4.03;;;2.83;;
25435;SDS011;13363;52.772;-3.890;2023-06-04T02:47:32;5.97;;;2.40;;
25435;SDS011;13363;52.772;-3.890;2023-06-04T02:49:58;3.17;;;2.17;;
25435;SDS011;13363;52.772;-3.890;2023-06-04T02:52:24;3.23;;;2.40;;
25435;SDS011;13363;52.772;-3.890;2023-06-04T02:54:50;4.30;;;2.50;;
25435;SDS011;13363;52.772;-3.890;2023-06-04T02:57:16;5.20;;;2.43;;
25435;SDS011;13363;52.772;-3.890;2023-06-04T02:59:42;2.53;;;2.33;;
25435;SDS011;13363;52.772;-3.890;2023-06-04T03:02:08;3.57;;;2.47;;
25435;SDS011;13363;52.772;-3.890;2023-06-04T03:04:34;7.43;;;2.57;;
25435;SDS011;13363;52.772;-3.890;2023-06-04T03:07:01;5.33;;;2.47;;
25435;SDS011;13363;52.772;-3.890;2023-06-04T03:09:27;4.13;;;2.00;;
25435;SDS011;13363;52.772;-3.890;2023-06-04T03:11:54;4.43;;;2.13;;
25435;SDS011;13363;52.772;-3.890;2023-06-04T03:14:21;2.00;;;1.90;;
25435;SDS011;13363;52.772;-3.890;2023-06-04T03:16:48;4.13;;;2.40;;
25435;SDS011;13363;52.772;-3.890;2023-06-04T03:19:16;2.50;;;2.00;;
25435;SDS011;13363;52.772;-3.890;2023-06-04T03:21:42;2.73;;;2.37;;
25435;SDS011;13363;52.772;-3.890;2023-06-04T03:24:10;6.40;;;2.27;;
25435;SDS011;13363;52.772;-3.890;2023-06-04T03:26:35;5.10;;;2.40;;
25435;SDS011;13363;52.772;-3.890;2023-06-04T03:29:01;4.90;;;2.70;;
25435;SDS011;13363;52.772;-3.890;2023-06-04T03:31:27;4.77;;;2.43;;
25435;SDS011;13363;52.772;-3.890;2023-06-04T03:33:53;3.10;;;2.07;;
25435;SDS011;13363;52.772;-3.890;2023-06-04T03:36:18;3.63;;;2.33;;
25435;SDS011;13363;52.772;-3.890;2023-06-04T03:38:47;7.33;;;2.37;;
25435;SDS011;13363;52.772;-3.890;2023-06-04T03:41:13;4.40;;;2.10;;
25435;SDS011;13363;52.772;-3.890;2023-06-04T03:43:38;3.70;;;2.30;;
25435;SDS011;13363;52.772;-3.890;2023-06-04T03:46:04;3.13;;;1.97;;
25435;SDS011;13363;52.772;-3.890;2023-06-04T03:48:30;2.90;;;2.60;;
25435;SDS011;13363;52.772;-3.890;2023-06-04T03:50:56;2.20;;;2.00;;
25435;SDS011;13363;52.772;-3.890;2023-06-04T03:53:21;3.70;;;2.10;;
25435;SDS011;13363;52.772;-3.890;2023-06-04T03:55:47;3.77;;;2.30;;
25435;SDS011;13363;52.772;-3.890;2023-06-04T03:58:13;2.90;;;2.47;;
25435;SDS011;13363;52.772;-3.890;2023-06-04T04:00:39;2.97;;;2.40;;
25435;SDS011;13363;52.772;-3.890;2023-06-04T04:03:05;3.50;;;2.30;;
25435;SDS011;13363;52.772;-3.890;2023-06-04T04:05:32;2.77;;;2.50;;
25435;SDS011;13363;52.772;-3.890;2023-06-04T04:07:58;2.47;;;2.17;;
25435;SDS011;13363;52.772;-3.890;2023-06-04T04:10:25;3.90;;;2.13;;
25435;SDS011;13363;52.772;-3.890;2023-06-04T04:12:50;2.40;;;2.30;;
25435;SDS011;13363;52.772;-3.890;2023-06-04T04:15:19;3.63;;;2.17;;
25435;SDS011;13363;52.772;-3.890;2023-06-04T04:17:45;3.23;;;2.13;;
25435;SDS011;13363;52.772;-3.890;2023-06-04T04:20:11;2.53;;;2.30;;
25435;SDS011;13363;52.772;-3.890;2023-06-04T04:22:40;2.90;;;2.00;;
25435;SDS011;13363;52.772;-3.890;2023-06-04T04:25:07;3.17;;;2.30;;
25435;SDS011;13363;52.772;-3.890;2023-06-04T04:27:33;3.43;;;2.33;;
25435;SDS011;13363;52.772;-3.890;2023-06-04T04:30:04;3.67;;;2.00;;
25435;SDS011;13363;52.772;-3.890;2023-06-04T04:32:30;3.53;;;2.03;;
25435;SDS011;13363;52.772;-3.890;2023-06-04T04:34:56;4.67;;;2.53;;
25435;SDS011;13363;52.772;-3.890;2023-06-04T04:37:23;5.30;;;2.37;;
25435;SDS011;13363;52.772;-3.890;2023-06-04T04:39:51;4.30;;;2.60;;
25435;SDS011;13363;52.772;-3.890;2023-06-04T04:42:19;2.40;;;1.87;;
25435;SDS011;13363;52.772;-3.890;2023-06-04T04:44:45;4.63;;;2.10;;
25435;SDS011;13363;52.772;-3.890;2023-06-04T04:47:16;4.30;;;2.00;;
25435;SDS011;13363;52.772;-3.890;2023-06-04T04:49:42;4.00;;;1.90;;
25435;SDS011;13363;52.772;-3.890;2023-06-04T04:52:07;5.13;;;2.30;;
25435;SDS011;13363;52.772;-3.890;2023-06-04T04:54:33;4.07;;;1.97;;
25435;SDS011;13363;52.772;-3.890;2023-06-04T04:56:59;2.50;;;2.13;;
25435;SDS011;13363;52.772;-3.890;2023-06-04T04:59:25;6.33;;;2.30;;
25435;SDS011;13363;52.772;-3.890;2023-06-04T05:01:52;3.37;;;2.30;;
25435;SDS011;13363;52.772;-3.890;2023-06-04T05:04:17;3.67;;;2.43;;
25435;SDS011;13363;52.772;-3.890;2023-06-04T05:06:43;2.07;;;1.97;;
25435;SDS011;13363;52.772;-3.890;2023-06-04T05:09:09;2.47;;;2.27;;
25435;SDS011;13363;52.772;-3.890;2023-06-04T05:11:35;2.47;;;2.27;;
25435;SDS011;13363;52.772;-3.890;2023-06-04T05:14:01;2.37;;;2.10;;
25435;SDS011;13363;52.772;-3.890;2023-06-04T05:16:26;4.33;;;2.47;;
25435;SDS011;13363;52.772;-3.890;2023-06-04T05:18:52;4.93;;;2.40;;
25435;SDS011;13363;52.772;-3.890;2023-06-04T05:21:21;2.73;;;1.97;;
25435;SDS011;13363;52.772;-3.890;2023-06-04T05:23:47;3.27;;;2.30;;
25435;SDS011;13363;52.772;-3.890;2023-06-04T05:26:13;5.33;;;2.20;;
25435;SDS011;13363;52.772;-3.890;2023-06-04T05:28:39;3.03;;;2.03;;
25435;SDS011;13363;52.772;-3.890;2023-06-04T05:31:08;3.13;;;1.87;;
25435;SDS011;13363;52.772;-3.890;2023-06-04T05:33:34;2.00;;;1.90;;
25435;SDS011;13363;52.772;-3.890;2023-06-04T05:36:00;3.93;;;2.13;;
25435;SDS011;13363;52.772;-3.890;2023-06-04T05:38:26;1.93;;;1.77;;
25435;SDS011;13363;52.772;-3.890;2023-06-04T05:40:55;2.70;;;1.90;;
25435;SDS011;13363;52.772;-3.890;2023-06-04T05:43:21;2.37;;;2.13;;
25435;SDS011;13363;52.772;-3.890;2023-06-04T05:45:47;3.07;;;2.50;;
25435;SDS011;13363;52.772;-3.890;2023-06-04T05:48:13;4.37;;;2.10;;
25435;SDS011;13363;52.772;-3.890;2023-06-04T05:50:39;2.60;;;1.70;;
25435;SDS011;13363;52.772;-3.890;2023-06-04T05:53:05;1.93;;;1.83;;
25435;SDS011;13363;52.772;-3.890;2023-06-04T05:55:32;2.53;;;1.80;;
25435;SDS011;13363;52.772;-3.890;2023-06-04T05:57:57;2.10;;;1.90;;
25435;SDS011;13363;52.772;-3.890;2023-06-04T06:00:23;2.20;;;2.00;;
25435;SDS011;13363;52.772;-3.890;2023-06-04T06:02:50;3.10;;;1.73;;
25435;SDS011;13363;52.772;-3.890;2023-06-04T06:05:17;1.73;;;1.63;;
25435;SDS011;13363;52.772;-3.890;2023-06-04T06:07:45;1.77;;;1.67;;
25435;SDS011;13363;52.772;-3.890;2023-06-04T06:10:11;2.10;;;2.00;;
25435;SDS011;13363;52.772;-3.890;2023-06-04T06:12:37;2.03;;;1.83;;
25435;SDS011;13363;52.772;-3.890;2023-06-04T06:15:03;3.93;;;1.90;;
25435;SDS011;13363;52.772;-3.890;2023-06-04T06:17:30;2.40;;;2.05;;
25435;SDS011;13363;52.772;-3.890;2023-06-04T06:19:57;2.80;;;2.30;;
25435;SDS011;13363;52.772;-3.890;2023-06-04T06:22:23;2.25;;;1.85;;
25435;SDS011;13363;52.772;-3.890;2023-06-04T06:24:50;2.17;;;2.08;;
25435;SDS011;13363;52.772;-3.890;2023-06-04T06:27:16;2.78;;;1.90;;
25435;SDS011;13363;52.772;-3.890;2023-06-04T06:29:42;1.73;;;1.63;;
25435;SDS011;13363;52.772;-3.890;2023-06-04T06:32:08;2.35;;;1.83;;
25435;SDS011;13363;52.772;-3.890;2023-06-04T06:34:37;4.55;;;2.17;;
25435;SDS011;13363;52.772;-3.890;2023-06-04T06:37:03;2.42;;;2.15;;
25435;SDS011;13363;52.772;-3.890;2023-06-04T06:39:29;2.53;;;1.90;;
25435;SDS011;13363;52.772;-3.890;2023-06-04T06:41:55;2.72;;;1.95;;
25435;SDS011;13363;52.772;-3.890;2023-06-04T06:44:21;3.70;;;2.17;;
25435;SDS011;13363;52.772;-3.890;2023-06-04T06:46:47;6.35;;;2.40;;
25435;SDS011;13363;52.772;-3.890;2023-06-04T06:49:14;2.53;;;2.08;;
25435;SDS011;13363;52.772;-3.890;2023-06-04T06:51:40;1.98;;;1.88;;
25435;SDS011;13363;52.772;-3.890;2023-06-04T06:54:08;2.28;;;1.80;;
25435;SDS011;13363;52.772;-3.890;2023-06-04T06:56:34;2.30;;;1.95;;
25435;SDS011;13363;52.772;-3.890;2023-06-04T06:59:00;2.50;;;1.90;;
25435;SDS011;13363;52.772;-3.890;2023-06-04T07:01:25;5.07;;;1.90;;
25435;SDS011;13363;52.772;-3.890;2023-06-04T07:03:51;2.70;;;1.98;;
25435;SDS011;13363;52.772;-3.890;2023-06-04T07:06:17;2.63;;;2.03;;
25435;SDS011;13363;52.772;-3.890;2023-06-04T07:08:43;1.95;;;1.85;;
25435;SDS011;13363;52.772;-3.890;2023-06-04T07:11:09;2.03;;;1.80;;
25435;SDS011;13363;52.772;-3.890;2023-06-04T07:13:39;1.92;;;1.70;;
25435;SDS011;13363;52.772;-3.890;2023-06-04T07:16:05;2.55;;;2.05;;
25435;SDS011;13363;52.772;-3.890;2023-06-04T07:18:32;2.20;;;2.00;;
25435;SDS011;13363;52.772;-3.890;2023-06-04T07:20:58;3.95;;;2.35;;
25435;SDS011;13363;52.772;-3.890;2023-06-04T07:23:24;3.00;;;1.90;;
25435;SDS011;13363;52.772;-3.890;2023-06-04T07:25:50;3.15;;;1.80;;
25435;SDS011;13363;52.772;-3.890;2023-06-04T07:28:16;3.95;;;1.95;;
25435;SDS011;13363;52.772;-3.890;2023-06-04T07:30:44;2.38;;;1.95;;
25435;SDS011;13363;52.772;-3.890;2023-06-04T07:33:10;1.80;;;1.70;;
25435;SDS011;13363;52.772;-3.890;2023-06-04T07:35:36;2.28;;;1.75;;
25435;SDS011;13363;52.772;-3.890;2023-06-04T07:38:02;3.33;;;2.10;;
25435;SDS011;13363;52.772;-3.890;2023-06-04T07:40:27;1.63;;;1.52;;
25435;SDS011;13363;52.772;-3.890;2023-06-04T07:42:53;2.00;;;1.73;;
25435;SDS011;13363;52.772;-3.890;2023-06-04T07:45:19;2.20;;;2.00;;
25435;SDS011;13363;52.772;-3.890;2023-06-04T07:47:45;3.67;;;2.05;;
25435;SDS011;13363;52.772;-3.890;2023-06-04T07:50:11;2.65;;;1.80;;
25435;SDS011;13363;52.772;-3.890;2023-06-04T07:52:37;2.00;;;1.75;;
25435;SDS011;13363;52.772;-3.890;2023-06-04T07:55:02;2.05;;;1.65;;
25435;SDS011;13363;52.772;-3.890;2023-06-04T07:57:29;2.60;;;1.77;;
25435;SDS011;13363;52.772;-3.890;2023-06-04T07:59:55;1.80;;;1.70;;
25435;SDS011;13363;52.772;-3.890;2023-06-04T08:02:22;1.77;;;1.67;;
25435;SDS011;13363;52.772;-3.890;2023-06-04T08:04:47;2.00;;;1.70;;
25435;SDS011;13363;52.772;-3.890;2023-06-04T08:07:13;2.45;;;2.17;;
25435;SDS011;13363;52.772;-3.890;2023-06-04T08:09:39;2.65;;;1.83;;
25435;SDS011;13363;52.772;-3.890;2023-06-04T08:12:05;1.67;;;1.58;;
25435;SDS011;13363;52.772;-3.890;2023-06-04T08:14:31;1.67;;;1.58;;
25435;SDS011;13363;52.772;-3.890;2023-06-04T08:16:57;2.42;;;2.10;;
25435;SDS011;13363;52.772;-3.890;2023-06-04T08:19:23;1.80;;;1.65;;
25435;SDS011;13363;52.772;-3.890;2023-06-04T08:21:50;1.80;;;1.70;;
25435;SDS011;13363;52.772;-3.890;2023-06-04T08:24:15;1.90;;;1.55;;
25435;SDS011;13363;52.772;-3.890;2023-06-04T08:26:41;2.53;;;1.60;;
25435;SDS011;13363;52.772;-3.890;2023-06-04T08:29:07;2.83;;;1.58;;
25435;SDS011;13363;52.772;-3.890;2023-06-04T08:31:33;1.77;;;1.45;;
25435;SDS011;13363;52.772;-3.890;2023-06-04T08:33:59;1.83;;;1.70;;
25435;SDS011;13363;52.772;-3.890;2023-06-04T08:36:26;1.80;;;1.70;;
25435;SDS011;13363;52.772;-3.890;2023-06-04T08:38:53;1.83;;;1.67;;
25435;SDS011;13363;52.772;-3.890;2023-06-04T08:41:28;1.50;;;1.40;;
25435;SDS011;13363;52.772;-3.890;2023-06-04T08:44:04;1.38;;;1.30;;
25435;SDS011;13363;52.772;-3.890;2023-06-04T08:46:34;2.03;;;1.92;;
25435;SDS011;13363;52.772;-3.890;2023-06-04T08:49:06;1.58;;;1.48;;
25435;SDS011;13363;52.772;-3.890;2023-06-04T08:51:35;2.05;;;1.50;;
25435;SDS011;13363;52.772;-3.890;2023-06-04T08:54:05;1.58;;;1.48;;
25435;SDS011;13363;52.772;-3.890;2023-06-04T08:56:32;1.60;;;1.30;;
25435;SDS011;13363;52.772;-3.890;2023-06-04T08:59:00;1.30;;;1.25;;
25435;SDS011;13363;52.772;-3.890;2023-06-04T09:01:31;2.45;;;1.48;;
25435;SDS011;13363;52.772;-3.890;2023-06-04T09:03:59;1.55;;;1.40;;
25435;SDS011;13363;52.772;-3.890;2023-06-04T09:06:27;2.25;;;1.83;;
25435;SDS011;13363;52.772;-3.890;2023-06-04T09:08:55;1.80;;;1.70;;
25435;SDS011;13363;52.772;-3.890;2023-06-04T09:11:30;1.98;;;1.88;;
25435;SDS011;13363;52.772;-3.890;2023-06-04T09:14:02;1.60;;;1.50;;
25435;SDS011;13363;52.772;-3.890;2023-06-04T09:16:32;1.88;;;1.70;;
25435;SDS011;13363;52.772;-3.890;2023-06-04T09:19:06;2.20;;;1.95;;
25435;SDS011;13363;52.772;-3.890;2023-06-04T09:21:33;2.03;;;1.92;;
25435;SDS011;13363;52.772;-3.890;2023-06-04T09:23:58;1.67;;;1.58;;
25435;SDS011;13363;52.772;-3.890;2023-06-04T09:26:24;1.70;;;1.60;;
25435;SDS011;13363;52.772;-3.890;2023-06-04T09:28:50;1.85;;;1.75;;
25435;SDS011;13363;52.772;-3.890;2023-06-04T09:31:20;2.00;;;1.90;;
25435;SDS011;13363;52.772;-3.890;2023-06-04T09:33:50;2.00;;;1.90;;
25435;SDS011;13363;52.772;-3.890;2023-06-04T09:36:16;1.48;;;1.38;;
25435;SDS011;13363;52.772;-3.890;2023-06-04T09:38:42;2.50;;;1.77;;
25435;SDS011;13363;52.772;-3.890;2023-06-04T09:41:12;2.15;;;2.05;;
25435;SDS011;13363;52.772;-3.890;2023-06-04T09:43:39;2.08;;;1.98;;
25435;SDS011;13363;52.772;-3.890;2023-06-04T09:46:11;2.00;;;1.90;;
25435;SDS011;13363;52.772;-3.890;2023-06-04T09:48:41;2.00;;;1.80;;
25435;SDS011;13363;52.772;-3.890;2023-06-04T09:51:15;2.70;;;1.77;;
25435;SDS011;13363;52.772;-3.890;2023-06-04T09:53:52;3.28;;;1.75;;
25435;SDS011;13363;52.772;-3.890;2023-06-04T09:56:20;2.22;;;2.00;;
25435;SDS011;13363;52.772;-3.890;2023-06-04T09:58:48;1.80;;;1.70;;
25435;SDS011;13363;52.772;-3.890;2023-06-04T10:01:20;1.92;;;1.83;;
25435;SDS011;13363;52.772;-3.890;2023-06-04T10:03:53;1.95;;;1.80;;
25435;SDS011;13363;52.772;-3.890;2023-06-04T10:06:22;2.42;;;1.90;;
25435;SDS011;13363;52.772;-3.890;2023-06-04T10:08:51;1.95;;;1.85;;
25435;SDS011;13363;52.772;-3.890;2023-06-04T10:11:24;2.30;;;1.52;;
25435;SDS011;13363;52.772;-3.890;2023-06-04T10:14:02;2.30;;;1.98;;
25435;SDS011;13363;52.772;-3.890;2023-06-04T10:16:31;1.85;;;1.75;;
25435;SDS011;13363;52.772;-3.890;2023-06-04T10:18:58;2.35;;;1.88;;
25435;SDS011;13363;52.772;-3.890;2023-06-04T10:21:25;2.38;;;2.17;;
25435;SDS011;13363;52.772;-3.890;2023-06-04T10:23:51;2.30;;;2.00;;
25435;SDS011;13363;52.772;-3.890;2023-06-04T10:26:17;2.00;;;1.90;;
25435;SDS011;13363;52.772;-3.890;2023-06-04T10:28:43;1.83;;;1.73;;
25435;SDS011;13363;52.772;-3.890;2023-06-04T10:31:10;1.75;;;1.65;;
25435;SDS011;13363;52.772;-3.890;2023-06-04T10:33:36;2.10;;;2.00;;
25435;SDS011;13363;52.772;-3.890;2023-06-04T10:36:15;1.80;;;1.70;;
25435;SDS011;13363;52.772;-3.890;2023-06-04T10:38:46;2.20;;;2.10;;
25435;SDS011;13363;52.772;-3.890;2023-06-04T10:41:13;2.15;;;1.98;;
25435;SDS011;13363;52.772;-3.890;2023-06-04T10:43:43;2.80;;;2.60;;
25435;SDS011;13363;52.772;-3.890;2023-06-04T10:49:33;1.90;;;1.80;;
25435;SDS011;13363;52.772;-3.890;2023-06-04T10:52:09;2.25;;;1.90;;
25435;SDS011;13363;52.772;-3.890;2023-06-04T10:54:35;2.45;;;2.25;;
25435;SDS011;13363;52.772;-3.890;2023-06-04T10:57:10;2.00;;;1.90;;
25435;SDS011;13363;52.772;-3.890;2023-06-04T10:59:36;2.30;;;2.03;;
25435;SDS011;13363;52.772;-3.890;2023-06-04T11:02:05;2.13;;;2.03;;
25435;SDS011;13363;52.772;-3.890;2023-06-04T11:04:35;2.33;;;1.98;;
25435;SDS011;13363;52.772;-3.890;2023-06-04T11:07:06;2.17;;;2.00;;
25435;SDS011;13363;52.772;-3.890;2023-06-04T11:09:36;2.90;;;2.10;;
25435;SDS011;13363;52.772;-3.890;2023-06-04T11:12:06;2.67;;;2.47;;
25435;SDS011;13363;52.772;-3.890;2023-06-04T11:14:32;2.38;;;2.13;;
25435;SDS011;13363;52.772;-3.890;2023-06-04T11:17:08;2.67;;;2.47;;
25435;SDS011;13363;52.772;-3.890;2023-06-04T11:19:36;2.80;;;2.55;;
25435;SDS011;13363;52.772;-3.890;2023-06-04T11:22:02;2.70;;;2.50;;
25435;SDS011;13363;52.772;-3.890;2023-06-04T11:24:29;2.30;;;2.10;;
25435;SDS011;13363;52.772;-3.890;2023-06-04T11:26:56;2.10;;;2.00;;
25435;SDS011;13363;52.772;-3.890;2023-06-04T11:32:34;2.33;;;2.17;;
25435;SDS011;13363;52.772;-3.890;2023-06-04T11:35:03;2.25;;;2.05;;
25435;SDS011;13363;52.772;-3.890;2023-06-04T11:37:33;2.65;;;2.42;;
25435;SDS011;13363;52.772;-3.890;2023-06-04T11:39:59;2.63;;;2.45;;
25435;SDS011;13363;52.772;-3.890;2023-06-04T11:42:27;2.42;;;2.33;;
25435;SDS011;13363;52.772;-3.890;2023-06-04T11:44:57;2.25;;;2.13;;
25435;SDS011;13363;52.772;-3.890;2023-06-04T11:47:23;2.70;;;2.50;;
25435;SDS011;13363;52.772;-3.890;2023-06-04T11:49:56;2.60;;;2.40;;
25435;SDS011;13363;52.772;-3.890;2023-06-04T11:52:22;1.95;;;1.85;;
25435;SDS011;13363;52.772;-3.890;2023-06-04T11:54:49;2.20;;;2.10;;
25435;SDS011;13363;52.772;-3.890;2023-06-04T11:57:15;2.45;;;2.30;;
25435;SDS011;13363;52.772;-3.890;2023-06-04T11:59:41;2.05;;;1.95;;
25435;SDS011;13363;52.772;-3.890;2023-06-04T12:02:07;2.47;;;2.30;;
25435;SDS011;13363;52.772;-3.890;2023-06-04T12:04:33;2.17;;;2.08;;
25435;SDS011;13363;52.772;-3.890;2023-06-04T12:07:00;2.15;;;2.05;;
25435;SDS011;13363;52.772;-3.890;2023-06-04T12:09:31;3.03;;;2.22;;
25435;SDS011;13363;52.772;-3.890;2023-06-04T12:12:01;2.65;;;2.50;;
25435;SDS011;13363;52.772;-3.890;2023-06-04T12:14:28;2.60;;;2.40;;
25435;SDS011;13363;52.772;-3.890;2023-06-04T12:17:00;3.63;;;2.90;;
25435;SDS011;13363;52.772;-3.890;2023-06-04T12:19:32;3.58;;;2.60;;
25435;SDS011;13363;52.772;-3.890;2023-06-04T12:22:13;2.25;;;2.05;;
25435;SDS011;13363;52.772;-3.890;2023-06-04T12:24:46;2.55;;;2.40;;
25435;SDS011;13363;52.772;-3.890;2023-06-04T12:27:13;2.40;;;2.30;;
25435;SDS011;13363;52.772;-3.890;2023-06-04T12:29:39;2.40;;;2.30;;
25435;SDS011;13363;52.772;-3.890;2023-06-04T12:32:06;2.60;;;2.45;;
25435;SDS011;13363;52.772;-3.890;2023-06-04T12:34:34;2.53;;;2.42;;
25435;SDS011;13363;52.772;-3.890;2023-06-04T12:37:00;2.63;;;2.50;;
25435;SDS011;13363;52.772;-3.890;2023-06-04T12:39:28;2.55;;;2.38;;
25435;SDS011;13363;52.772;-3.890;2023-06-04T12:41:55;2.67;;;2.47;;
25435;SDS011;13363;52.772;-3.890;2023-06-04T12:44:20;2.78;;;2.60;;
25435;SDS011;13363;52.772;-3.890;2023-06-04T12:46:47;2.97;;;2.78;;
25435;SDS011;13363;52.772;-3.890;2023-06-04T12:49:12;2.78;;;2.58;;
25435;SDS011;13363;52.772;-3.890;2023-06-04T12:51:38;2.88;;;2.67;;
25435;SDS011;13363;52.772;-3.890;2023-06-04T12:54:04;2.50;;;2.40;;
25435;SDS011;13363;52.772;-3.890;2023-06-04T12:56:30;2.80;;;2.60;;
25435;SDS011;13363;52.772;-3.890;2023-06-04T13:05:20;3.55;;;3.28;;
25435;SDS011;13363;52.772;-3.890;2023-06-04T13:07:46;2.83;;;2.63;;
25435;SDS011;13363;52.772;-3.890;2023-06-04T13:10:11;2.58;;;2.40;;
25435;SDS011;13363;52.772;-3.890;2023-06-04T13:12:37;2.55;;;2.40;;
25435;SDS011;13363;52.772;-3.890;2023-06-04T13:15:08;3.05;;;2.85;;
25435;SDS011;13363;52.772;-3.890;2023-06-04T13:17:36;3.78;;;3.35;;
25435;SDS011;13363;52.772;-3.890;2023-06-04T13:20:08;2.75;;;2.55;;
25435;SDS011;13363;52.772;-3.890;2023-06-04T13:22:35;3.13;;;2.92;;
25435;SDS011;13363;52.772;-3.890;2023-06-04T13:25:01;2.85;;;2.65;;
25435;SDS011;13363;52.772;-3.890;2023-06-04T13:27:26;3.50;;;3.13;;
25435;SDS011;13363;52.772;-3.890;2023-06-04T13:29:52;3.20;;;3.00;;
25435;SDS011;13363;52.772;-3.890;2023-06-04T13:32:18;3.50;;;3.10;;
25435;SDS011;13363;52.772;-3.890;2023-06-04T13:34:44;3.63;;;3.28;;
25435;SDS011;13363;52.772;-3.890;2023-06-04T13:37:10;3.10;;;2.90;;
25435;SDS011;13363;52.772;-3.890;2023-06-04T13:39:37;3.45;;;3.25;;
25435;SDS011;13363;52.772;-3.890;2023-06-04T13:42:03;3.45;;;3.25;;
25435;SDS011;13363;52.772;-3.890;2023-06-04T13:44:30;3.15;;;2.95;;
25435;SDS011;13363;52.772;-3.890;2023-06-04T13:46:58;4.55;;;3.22;;
25435;SDS011;13363;52.772;-3.890;2023-06-04T13:49:24;3.58;;;3.38;;
25435;SDS011;13363;52.772;-3.890;2023-06-04T13:51:51;3.58;;;3.38;;
25435;SDS011;13363;52.772;-3.890;2023-06-04T13:54:18;3.75;;;3.45;;
25435;SDS011;13363;52.772;-3.890;2023-06-04T13:56:44;3.78;;;3.47;;
25435;SDS011;13363;52.772;-3.890;2023-06-04T13:59:10;3.90;;;3.22;;
25435;SDS011;13363;52.772;-3.890;2023-06-04T14:01:35;3.75;;;3.45;;
25435;SDS011;13363;52.772;-3.890;2023-06-04T14:04:01;3.45;;;3.20;;
25435;SDS011;13363;52.772;-3.890;2023-06-04T14:06:31;3.03;;;2.83;;
25435;SDS011;13363;52.772;-3.890;2023-06-04T14:08:57;4.00;;;3.70;;
25435;SDS011;13363;52.772;-3.890;2023-06-04T14:11:23;3.58;;;3.38;;
25435;SDS011;13363;52.772;-3.890;2023-06-04T14:13:50;4.40;;;4.10;;
25435;SDS011;13363;52.772;-3.890;2023-06-04T14:16:16;4.20;;;3.90;;
25435;SDS011;13363;52.772;-3.890;2023-06-04T14:18:42;5.10;;;4.20;;
25435;SDS011;13363;52.772;-3.890;2023-06-04T14:21:07;3.95;;;3.65;;
25435;SDS011;13363;52.772;-3.890;2023-06-04T14:23:33;3.47;;;3.28;;
25435;SDS011;13363;52.772;-3.890;2023-06-04T14:25:59;5.07;;;4.57;;
25435;SDS011;13363;52.772;-3.890;2023-06-04T14:28:25;4.40;;;4.00;;
25435;SDS011;13363;52.772;-3.890;2023-06-04T14:30:51;4.75;;;4.45;;
25435;SDS011;13363;52.772;-3.890;2023-06-04T14:33:17;4.72;;;4.32;;
25435;SDS011;13363;52.772;-3.890;2023-06-04T14:35:42;4.00;;;3.80;;
25435;SDS011;13363;52.772;-3.890;2023-06-04T14:38:12;4.40;;;3.92;;
25435;SDS011;13363;52.772;-3.890;2023-06-04T14:40:39;4.82;;;3.38;;
25435;SDS011;13363;52.772;-3.890;2023-06-04T14:43:06;3.03;;;2.83;;
25435;SDS011;13363;52.772;-3.890;2023-06-04T14:45:32;3.63;;;3.40;;
25435;SDS011;13363;52.772;-3.890;2023-06-04T14:47:58;4.35;;;4.05;;
25435;SDS011;13363;52.772;-3.890;2023-06-04T14:50:24;4.70;;;4.40;;
25435;SDS011;13363;52.772;-3.890;2023-06-04T14:52:50;4.30;;;3.90;;
25435;SDS011;13363;52.772;-3.890;2023-06-04T14:55:15;4.30;;;4.00;;